Cape Romanzof LRRS Airport Cape Romanzof US
ICAO: PACZ
IATA:
Category: Medium
Scheduled Services:

Elevation: 464 ft
TransAlt. 18000 ft.

Airport Communications:
ANCHORAGE ARTCC:124.5
ANCHORAGE CNTR:132.5
KENAI RDO:122.1
INFO:126.2

PACZ Zoom In..

Runways:

(A) RW 02 length 3925 ft width 161 ft
---- / hdg 16

(B) RW 20 length 3925 ft width 161 ft
---- / hdg 196

Location; PACZ
Day. 20 / Time. 02.34 Zulu
* Altimeter: 30.23
* Temperature: 10° c. 50°f.
* Wind from: 260° Speed 03 kn.
Dewpoint: 09° c.
Visibility: 10 Statute Miles.
Clouds: Overcast 700 ft.

PACZ 200234Z AUTO 26003KT 10SM OVC007 10/09 A3023 RMK AO2 SLP240


Wind From 260°
Speed 03 kn.

 
 
jpsmedia.com for Web Design worldairports.se 2018   terms of use